createdAt,value
2022-11-26T00:00:33.099Z,85.87
2022-11-26T00:05:34.414Z,85.13
2022-11-26T00:10:36.374Z,85.33
2022-11-26T00:15:37.812Z,84.99
2022-11-26T00:20:39.889Z,85.42
2022-11-26T00:25:48.395Z,85.79
2022-11-26T00:30:49.921Z,85.25
2022-11-26T00:35:55.587Z,85.69
2022-11-26T00:40:57.763Z,85.85
2022-11-26T00:45:59.120Z,86.09
2022-11-26T00:51:00.439Z,85.41
2022-11-26T00:56:01.759Z,85.14
2022-11-26T01:01:03.032Z,86.09
2022-11-26T01:06:04.471Z,85.89
2022-11-26T01:11:06.030Z,86.36
2022-11-26T01:16:18.844Z,86.60
2022-11-26T01:21:20.716Z,86.82
2022-11-26T01:26:27.839Z,87.08
2022-11-26T01:31:30.243Z,87.67
2022-11-26T01:36:34.720Z,87.53
2022-11-26T01:42:14.608Z,88.10
2022-11-26T01:47:23.925Z,88.11
2022-11-26T01:52:26.248Z,88.26
2022-11-26T01:57:30.304Z,88.79
2022-11-26T02:02:31.703Z,88.68
2022-11-26T02:07:34.342Z,89.01
2022-11-26T02:12:37.323Z,88.51
2022-11-26T02:17:57.719Z,88.54
2022-11-26T02:23:27.976Z,88.37
2022-11-26T02:28:51.789Z,87.87
2022-11-26T02:33:56.480Z,87.62
2022-11-26T02:38:57.882Z,88.06
2022-11-26T02:43:59.238Z,87.93
2022-11-26T02:49:01.981Z,88.15
2022-11-26T02:54:06.130Z,87.23
2022-11-26T02:59:07.721Z,87.15
2022-11-26T03:04:15.998Z,86.74
2022-11-26T03:09:18.516Z,87.19
2022-11-26T03:14:19.775Z,86.91
2022-11-26T03:19:21.056Z,87.24
2022-11-26T03:24:22.345Z,87.19
2022-11-26T03:29:23.959Z,86.93
2022-11-26T03:34:25.573Z,86.66
2022-11-26T03:39:26.850Z,86.15
2022-11-26T03:44:28.100Z,86.11
2022-11-26T03:49:29.404Z,86.31
2022-11-26T03:54:30.831Z,86.60
2022-11-26T03:59:32.078Z,86.76
2022-11-26T04:04:33.878Z,87.01
2022-11-26T04:09:35.219Z,88.01
2022-11-26T04:14:36.820Z,88.20
2022-11-26T04:19:38.348Z,88.34
2022-11-26T04:24:39.999Z,87.83
2022-11-26T04:29:41.541Z,88.85
2022-11-26T04:34:42.767Z,88.38
2022-11-26T04:39:44.021Z,88.71
2022-11-26T04:44:45.267Z,88.67
2022-11-26T04:49:46.555Z,88.28
2022-11-26T04:54:47.799Z,88.71
2022-11-26T04:59:49.019Z,88.71
2022-11-26T05:04:50.318Z,88.97
2022-11-26T05:09:51.795Z,88.79
2022-11-26T05:14:53.244Z,89.47
2022-11-26T05:19:54.503Z,89.90
2022-11-26T05:24:55.741Z,89.29
2022-11-26T05:29:57.098Z,89.63
2022-11-26T05:35:00.177Z,89.19
2022-11-26T05:40:02.329Z,89.16
2022-11-26T05:45:04.580Z,88.90
2022-11-26T05:50:06.584Z,88.51
2022-11-26T05:55:08.720Z,88.88
2022-11-26T06:00:10.665Z,88.41
2022-11-26T06:05:12.188Z,87.97
2022-11-26T06:10:13.745Z,87.77
2022-11-26T06:15:15.149Z,87.49
2022-11-26T06:20:16.580Z,87.89
2022-11-26T06:25:18.076Z,88.62
2022-11-26T06:30:19.545Z,89.04
2022-11-26T06:35:20.987Z,88.19
2022-11-26T06:40:22.335Z,88.70
2022-11-26T06:45:24.159Z,88.22
2022-11-26T06:50:25.801Z,89.01
2022-11-26T06:55:27.066Z,88.36
2022-11-26T07:00:28.392Z,87.88
2022-11-26T07:05:29.655Z,88.10
2022-11-26T07:10:30.951Z,88.44
2022-11-26T07:15:32.289Z,88.55
2022-11-26T07:20:35.479Z,88.68
2022-11-26T07:25:37.120Z,88.93
2022-11-26T07:30:38.507Z,88.39
2022-11-26T07:35:40.002Z,89.14
2022-11-26T07:40:41.614Z,88.96
2022-11-26T07:45:43.116Z,88.34
2022-11-26T07:50:45.204Z,87.65
2022-11-26T07:55:46.778Z,87.30
2022-11-26T08:00:53.203Z,87.07
2022-11-26T08:05:55.968Z,87.73
2022-11-26T08:10:57.247Z,87.58
2022-11-26T08:15:58.553Z,87.29
2022-11-26T08:21:00.841Z,87.25
2022-11-26T08:31:32.808Z,87.26
2022-11-26T08:36:34.253Z,86.70
2022-11-26T08:41:35.669Z,86.30
2022-11-26T08:46:39.208Z,86.23
2022-11-26T08:51:41.384Z,85.84
2022-11-26T08:56:42.785Z,85.49
2022-11-26T09:01:44.168Z,85.32
2022-11-26T09:06:45.621Z,84.61
2022-11-26T09:11:54.029Z,84.71
2022-11-26T09:16:56.727Z,84.79
2022-11-26T09:21:58.755Z,83.74
2022-11-26T09:27:05.922Z,82.76
2022-11-26T09:32:24.440Z,81.64
2022-11-26T09:37:28.312Z,80.27
2022-11-26T09:42:42.333Z,78.50
2022-11-26T09:47:47.837Z,77.30
2022-11-26T09:53:02.223Z,76.68
2022-11-26T09:58:15.796Z,74.80
2022-11-26T10:03:20.178Z,73.38
2022-11-26T10:08:32.958Z,72.44
2022-11-26T10:13:37.191Z,72.53
2022-11-26T10:18:49.103Z,72.31
2022-11-26T10:24:13.328Z,63.07
2022-11-26T10:29:33.337Z,51.71
2022-11-26T10:34:46.654Z,45.28
2022-11-26T10:39:48.522Z,43.02
2022-11-26T10:44:52.045Z,39.40
2022-11-26T10:49:54.570Z,41.27
2022-11-26T10:55:17.826Z,40.81
2022-11-26T11:00:40.922Z,43.94
2022-11-26T11:05:45.406Z,45.04
2022-11-26T11:10:54.821Z,40.99
2022-11-26T11:16:02.011Z,38.68
2022-11-26T11:21:04.630Z,34.42
2022-11-26T11:26:12.744Z,34.29
2022-11-26T11:31:17.745Z,34.88
2022-11-26T11:36:28.884Z,40.65
2022-11-26T11:41:43.153Z,42.66
2022-11-26T11:46:56.815Z,37.69
2022-11-26T11:52:06.480Z,37.00
2022-11-26T11:57:35.696Z,32.97
2022-11-26T12:02:49.329Z,30.22
2022-11-26T12:08:01.239Z,33.96
2022-11-26T12:13:06.952Z,34.76
2022-11-26T12:18:23.633Z,34.88
2022-11-26T12:23:46.433Z,41.72
2022-11-26T12:28:55.838Z,44.21
2022-11-26T12:34:08.712Z,46.17
2022-11-26T12:39:18.985Z,46.58
2022-11-26T12:44:37.942Z,46.67
2022-11-26T12:50:10.408Z,48.15
2022-11-26T12:55:34.499Z,51.67
2022-11-26T13:00:36.664Z,55.67
2022-11-26T13:05:42.061Z,59.03
2022-11-26T13:10:59.732Z,61.28
2022-11-26T13:16:20.299Z,63.04
2022-11-26T13:21:34.810Z,65.04
2022-11-26T13:27:25.279Z,68.20
2022-11-26T13:32:57.529Z,69.48
2022-11-26T13:38:10.849Z,70.91
2022-11-26T13:43:40.031Z,71.48
2022-11-26T13:48:52.881Z,72.42
2022-11-26T13:54:05.943Z,72.34
2022-11-26T13:59:28.096Z,72.22
2022-11-26T14:04:32.942Z,73.65
2022-11-26T14:09:46.495Z,74.73
2022-11-26T14:14:49.638Z,74.92
2022-11-26T14:19:56.825Z,74.57
2022-11-26T14:25:04.212Z,74.99
2022-11-26T14:30:06.508Z,75.41
2022-11-26T14:35:34.431Z,75.55
2022-11-26T14:40:38.037Z,75.23
2022-11-26T14:45:39.939Z,75.23
2022-11-26T14:50:41.763Z,74.98
2022-11-26T14:55:44.773Z,75.23
2022-11-26T15:01:02.014Z,75.32
2022-11-26T15:06:03.409Z,75.54
2022-11-26T15:11:07.671Z,75.54
2022-11-26T15:16:36.347Z,76.06
2022-11-26T15:21:40.669Z,76.01
2022-11-26T15:26:46.721Z,75.69
2022-11-26T15:31:47.979Z,76.09
2022-11-26T15:36:49.328Z,76.26
2022-11-26T15:41:51.652Z,76.07
2022-11-26T15:46:55.809Z,75.77
2022-11-26T15:52:00.519Z,75.38
2022-11-26T15:57:08.177Z,74.99
2022-11-26T16:02:19.319Z,75.38
2022-11-26T16:07:27.058Z,75.79
2022-11-26T16:12:33.751Z,76.06
2022-11-26T16:17:36.853Z,76.10
2022-11-26T16:22:38.211Z,75.77
2022-11-26T16:27:39.456Z,75.40
2022-11-26T16:32:40.735Z,75.67
2022-11-26T16:37:45.384Z,75.46
2022-11-26T16:42:47.603Z,74.92
2022-11-26T16:47:54.267Z,74.08
2022-11-26T16:52:56.488Z,73.83
2022-11-26T16:58:01.192Z,73.49
2022-11-26T17:03:02.573Z,73.74
2022-11-26T17:08:05.232Z,74.39
2022-11-26T17:13:07.399Z,75.05
2022-11-26T17:18:20.866Z,74.94
2022-11-26T17:23:22.224Z,75.08
2022-11-26T17:28:23.715Z,75.21
2022-11-26T17:33:25.108Z,74.88
2022-11-26T17:38:26.515Z,73.81
2022-11-26T17:43:27.951Z,73.26
2022-11-26T17:48:29.271Z,73.59
2022-11-26T17:53:30.745Z,74.19
2022-11-26T17:58:32.034Z,75.02
2022-11-26T18:03:33.424Z,75.26
2022-11-26T18:08:35.012Z,75.44
2022-11-26T18:13:36.447Z,75.26
2022-11-26T18:18:37.748Z,76.43
2022-11-26T18:23:41.363Z,75.67
2022-11-26T18:28:42.957Z,75.51
2022-11-26T18:33:44.388Z,75.87
2022-11-26T18:38:46.071Z,75.09
2022-11-26T18:43:47.572Z,75.54
2022-11-26T18:48:50.178Z,75.18
2022-11-26T18:53:51.772Z,75.64
2022-11-26T18:58:53.130Z,75.91
2022-11-26T19:03:55.384Z,75.88
2022-11-26T19:09:19.519Z,76.18
2022-11-26T19:14:21.482Z,76.32
2022-11-26T19:19:22.894Z,76.86
2022-11-26T19:24:24.308Z,77.20
2022-11-26T19:29:25.815Z,77.69
2022-11-26T19:34:27.158Z,77.76
2022-11-26T19:39:28.546Z,77.93
2022-11-26T19:44:29.890Z,77.46
2022-11-26T19:49:32.904Z,78.06
2022-11-26T19:54:34.599Z,78.54
2022-11-26T19:59:35.902Z,78.40
2022-11-26T20:04:37.490Z,76.02
2022-11-26T20:09:39.096Z,74.95
2022-11-26T20:14:40.639Z,75.91
2022-11-26T20:19:42.140Z,76.93
2022-11-26T20:24:43.632Z,76.17
2022-11-26T20:29:45.126Z,75.46
2022-11-26T20:34:47.208Z,73.07
2022-11-26T20:39:48.767Z,74.46
2022-11-26T20:44:50.158Z,74.67
2022-11-26T20:49:51.654Z,73.15
2022-11-26T20:54:53.998Z,73.59
2022-11-26T20:59:55.541Z,72.09
2022-11-26T21:04:57.069Z,72.12
2022-11-26T21:09:58.927Z,72.85
2022-11-26T21:15:00.199Z,72.72
2022-11-26T21:20:01.518Z,72.82
2022-11-26T21:25:02.983Z,72.52
2022-11-26T21:30:04.889Z,72.32
2022-11-26T21:35:07.127Z,72.71
2022-11-26T21:40:09.599Z,72.70
2022-11-26T21:45:11.170Z,72.72
2022-11-26T21:50:12.591Z,72.95
2022-11-26T21:55:14.027Z,72.68
2022-11-26T22:00:16.396Z,72.27
2022-11-26T22:05:17.714Z,71.74
2022-11-26T22:10:19.055Z,71.45
2022-11-26T22:15:20.547Z,71.91
2022-11-26T22:20:21.969Z,71.91
2022-11-26T22:25:23.894Z,71.69
2022-11-26T22:30:25.175Z,72.63
2022-11-26T22:35:26.456Z,72.73
2022-11-26T22:40:28.088Z,72.27
2022-11-26T22:45:30.375Z,72.05
2022-11-26T22:50:31.703Z,72.21
2022-11-26T22:55:33.023Z,72.29
2022-11-26T23:01:07.816Z,71.88
2022-11-26T23:06:10.884Z,71.41
2022-11-26T23:11:19.908Z,71.83
2022-11-26T23:16:24.216Z,71.48
2022-11-26T23:21:29.215Z,71.44
2022-11-26T23:26:33.187Z,71.85
2022-11-26T23:31:37.353Z,71.75
2022-11-26T23:36:39.410Z,71.63
2022-11-26T23:41:40.843Z,71.29
2022-11-26T23:46:42.235Z,71.63
2022-11-26T23:51:43.568Z,71.66
2022-11-26T23:56:45.130Z,71.35
